sensor_id;sensor_type;location;lat;lon;timestamp;pressure;altitude;pressure_sealevel;temperature;humidity
58082;BME280;43876;55.576;38.242;2022-08-04T00:00:26;100321.22;;;20.08;54.62
58082;BME280;43876;55.576;38.242;2022-08-04T00:03:15;100313.22;;;20.10;54.85
58082;BME280;43876;55.576;38.242;2022-08-04T00:06:07;100311.66;;;20.02;55.69
58082;BME280;43876;55.576;38.242;2022-08-04T00:08:46;100305.63;;;19.97;55.28
58082;BME280;43876;55.576;38.242;2022-08-04T00:11:20;100317.00;;;20.01;55.63
58082;BME280;43876;55.576;38.242;2022-08-04T00:14:06;100320.66;;;19.97;55.35
58082;BME280;43876;55.576;38.242;2022-08-04T00:16:36;100314.53;;;19.95;56.56
58082;BME280;43876;55.576;38.242;2022-08-04T00:19:16;100322.78;;;19.84;57.08
58082;BME280;43876;55.576;38.242;2022-08-04T00:21:51;100321.38;;;19.71;56.82
58082;BME280;43876;55.576;38.242;2022-08-04T00:24:21;100318.75;;;19.71;56.51
58082;BME280;43876;55.576;38.242;2022-08-04T00:26:52;100315.25;;;19.67;56.67
58082;BME280;43876;55.576;38.242;2022-08-04T00:29:20;100280.41;;;19.50;57.65
58082;BME280;43876;55.576;38.242;2022-08-04T00:31:48;100332.25;;;19.60;57.64
58082;BME280;43876;55.576;38.242;2022-08-04T00:34:25;100313.06;;;19.50;57.31
58082;BME280;43876;55.576;38.242;2022-08-04T00:36:53;100328.09;;;19.50;57.73
58082;BME280;43876;55.576;38.242;2022-08-04T00:39:21;100307.34;;;19.31;57.99
58082;BME280;43876;55.576;38.242;2022-08-04T00:50:21;100331.03;;;19.37;57.24
58082;BME280;43876;55.576;38.242;2022-08-04T00:53:06;100336.56;;;19.30;57.19
58082;BME280;43876;55.576;38.242;2022-08-04T01:01:03;100327.31;;;19.10;57.79
58082;BME280;43876;55.576;38.242;2022-08-04T01:04:15;100319.69;;;18.96;57.97
58082;BME280;43876;55.576;38.242;2022-08-04T01:07:02;100349.66;;;18.98;58.61
58082;BME280;43876;55.576;38.242;2022-08-04T01:10:16;100345.47;;;18.88;58.72
58082;BME280;43876;55.576;38.242;2022-08-04T01:24:36;100349.25;;;18.78;59.44
58082;BME280;43876;55.576;38.242;2022-08-04T01:27:26;100356.50;;;18.67;60.25
58082;BME280;43876;55.576;38.242;2022-08-04T01:30:00;100365.56;;;18.56;60.24
58082;BME280;43876;55.576;38.242;2022-08-04T01:32:37;100342.75;;;18.51;59.63
58082;BME280;43876;55.576;38.242;2022-08-04T01:35:24;100346.22;;;18.54;59.57
58082;BME280;43876;55.576;38.242;2022-08-04T01:40:51;100327.94;;;18.44;59.75
58082;BME280;43876;55.576;38.242;2022-08-04T01:43:19;100342.78;;;18.49;59.61
58082;BME280;43876;55.576;38.242;2022-08-04T01:45:51;100355.75;;;18.60;59.70
58082;BME280;43876;55.576;38.242;2022-08-04T01:57:11;100361.38;;;18.46;59.60
58082;BME280;43876;55.576;38.242;2022-08-04T02:00:03;100353.25;;;18.54;60.09
58082;BME280;43876;55.576;38.242;2022-08-04T02:02:30;100360.97;;;18.65;60.16
58082;BME280;43876;55.576;38.242;2022-08-04T02:04:58;100339.13;;;18.56;59.98
58082;BME280;43876;55.576;38.242;2022-08-04T02:13:22;100360.63;;;18.81;59.73
58082;BME280;43876;55.576;38.242;2022-08-04T02:16:07;100358.97;;;18.76;59.60
58082;BME280;43876;55.576;38.242;2022-08-04T02:18:50;100365.72;;;18.91;59.62
58082;BME280;43876;55.576;38.242;2022-08-04T02:21:24;100361.44;;;18.85;59.64
58082;BME280;43876;55.576;38.242;2022-08-04T02:32:48;100377.19;;;18.90;60.29
58082;BME280;43876;55.576;38.242;2022-08-04T02:35:25;100334.38;;;18.71;59.57
58082;BME280;43876;55.576;38.242;2022-08-04T02:41:06;100377.78;;;19.02;59.98
58082;BME280;43876;55.576;38.242;2022-08-04T02:43:35;100371.13;;;19.23;59.06
58082;BME280;43876;55.576;38.242;2022-08-04T02:46:20;100370.66;;;19.42;58.60
58082;BME280;43876;55.576;38.242;2022-08-04T02:48:49;100364.94;;;19.59;57.72
58082;BME280;43876;55.576;38.242;2022-08-04T02:51:21;100366.69;;;20.25;56.08
58082;BME280;43876;55.576;38.242;2022-08-04T02:53:53;100371.56;;;21.82;51.97
58082;BME280;43876;55.576;38.242;2022-08-04T02:56:23;100367.75;;;23.30;48.61
58082;BME280;43876;55.576;38.242;2022-08-04T02:58:56;100376.28;;;24.81;44.64
58082;BME280;43876;55.576;38.242;2022-08-04T03:01:24;100360.84;;;26.11;41.63
58082;BME280;43876;55.576;38.242;2022-08-04T03:07:24;100373.88;;;28.92;37.06
58082;BME280;43876;55.576;38.242;2022-08-04T03:22:09;100362.81;;;33.87;28.05
58082;BME280;43876;55.576;38.242;2022-08-04T03:36:11;100360.94;;;37.37;22.87
58082;BME280;43876;55.576;38.242;2022-08-04T03:53:07;100380.91;;;37.09;23.14
58082;BME280;43876;55.576;38.242;2022-08-04T03:58:51;100373.94;;;38.39;21.93
58082;BME280;43876;55.576;38.242;2022-08-04T04:04:05;100376.69;;;37.87;22.08
58082;BME280;43876;55.576;38.242;2022-08-04T04:06:45;100372.66;;;36.74;22.98
58082;BME280;43876;55.576;38.242;2022-08-04T04:31:19;100378.53;;;27.44;38.00
58082;BME280;43876;55.576;38.242;2022-08-04T04:34:25;100386.06;;;27.21;38.35
58082;BME280;43876;55.576;38.242;2022-08-04T04:40:09;100390.41;;;26.92;39.54
58082;BME280;43876;55.576;38.242;2022-08-04T04:45:29;100338.19;;;26.67;39.62
58082;BME280;43876;55.576;38.242;2022-08-04T04:54:10;100410.75;;;27.28;39.85
58082;BME280;43876;55.576;38.242;2022-08-04T04:56:42;100405.75;;;27.22;40.01
58082;BME280;43876;55.576;38.242;2022-08-04T04:59:14;100408.72;;;27.15;40.28
58082;BME280;43876;55.576;38.242;2022-08-04T05:15:32;100416.59;;;27.03;41.41
58082;BME280;43876;55.576;38.242;2022-08-04T05:18:02;100371.22;;;26.68;41.08
58082;BME280;43876;55.576;38.242;2022-08-04T05:20:37;100407.34;;;26.92;41.38
58082;BME280;43876;55.576;38.242;2022-08-04T05:26:00;100397.66;;;26.90;41.36
58082;BME280;43876;55.576;38.242;2022-08-04T05:31:05;100399.81;;;26.99;41.35
58082;BME280;43876;55.576;38.242;2022-08-04T05:33:51;100405.78;;;27.20;40.82
58082;BME280;43876;55.576;38.242;2022-08-04T05:36:25;100372.59;;;27.23;40.43
58082;BME280;43876;55.576;38.242;2022-08-04T05:39:15;100358.47;;;27.19;40.71
58082;BME280;43876;55.576;38.242;2022-08-04T05:41:49;100395.47;;;27.60;40.33
58082;BME280;43876;55.576;38.242;2022-08-04T05:44:25;100412.00;;;27.83;39.30
58082;BME280;43876;55.576;38.242;2022-08-04T05:46:55;100414.63;;;27.68;38.50
58082;BME280;43876;55.576;38.242;2022-08-04T05:49:25;100409.44;;;27.35;39.51
58082;BME280;43876;55.576;38.242;2022-08-04T05:51:54;100410.03;;;26.92;40.62
58082;BME280;43876;55.576;38.242;2022-08-04T05:54:21;100405.03;;;27.02;40.74
58082;BME280;43876;55.576;38.242;2022-08-04T05:56:52;100310.84;;;26.45;39.34
58082;BME280;43876;55.576;38.242;2022-08-04T05:59:21;100414.34;;;26.95;39.92
58082;BME280;43876;55.576;38.242;2022-08-04T06:01:56;100397.31;;;26.80;39.36
58082;BME280;43876;55.576;38.242;2022-08-04T06:04:29;100400.16;;;26.77;39.71
58082;BME280;43876;55.576;38.242;2022-08-04T06:06:57;100409.16;;;26.92;39.29
58082;BME280;43876;55.576;38.242;2022-08-04T06:09:24;100419.22;;;27.04;39.42
58082;BME280;43876;55.576;38.242;2022-08-04T06:11:52;100390.41;;;26.92;38.96
58082;BME280;43876;55.576;38.242;2022-08-04T06:14:42;100413.81;;;26.88;38.48
58082;BME280;43876;55.576;38.242;2022-08-04T06:17:11;100404.41;;;26.65;39.29
58082;BME280;43876;55.576;38.242;2022-08-04T06:20:01;100402.84;;;27.09;38.54
58082;BME280;43876;55.576;38.242;2022-08-04T06:22:49;100417.22;;;27.40;37.73
58082;BME280;43876;55.576;38.242;2022-08-04T06:25:21;100397.88;;;27.49;37.76
58082;BME280;43876;55.576;38.242;2022-08-04T06:27:50;100411.16;;;27.36;37.69
58082;BME280;43876;55.576;38.242;2022-08-04T06:30:18;100395.84;;;27.38;37.41
58082;BME280;43876;55.576;38.242;2022-08-04T06:32:47;100401.13;;;27.70;36.99
58082;BME280;43876;55.576;38.242;2022-08-04T06:35:31;100405.50;;;27.56;36.66
58082;BME280;43876;55.576;38.242;2022-08-04T06:37:59;100402.88;;;27.41;37.43
58082;BME280;43876;55.576;38.242;2022-08-04T06:40:28;100385.75;;;26.95;37.33
58082;BME280;43876;55.576;38.242;2022-08-04T06:43:05;100412.88;;;27.05;37.41
58082;BME280;43876;55.576;38.242;2022-08-04T06:45:34;100413.31;;;27.13;37.75
58082;BME280;43876;55.576;38.242;2022-08-04T06:48:05;100405.47;;;27.26;37.64
58082;BME280;43876;55.576;38.242;2022-08-04T06:50:36;100407.97;;;27.45;37.43
58082;BME280;43876;55.576;38.242;2022-08-04T06:53:25;100411.59;;;27.74;36.16
58082;BME280;43876;55.576;38.242;2022-08-04T06:55:53;100414.75;;;27.67;36.74
58082;BME280;43876;55.576;38.242;2022-08-04T06:58:21;100404.16;;;27.33;37.18
58082;BME280;43876;55.576;38.242;2022-08-04T07:00:51;100363.50;;;27.25;37.73
58082;BME280;43876;55.576;38.242;2022-08-04T07:03:19;100417.06;;;27.43;37.38
58082;BME280;43876;55.576;38.242;2022-08-04T07:05:48;100422.06;;;27.33;37.66
58082;BME280;43876;55.576;38.242;2022-08-04T07:08:17;100406.41;;;27.09;37.99
58082;BME280;43876;55.576;38.242;2022-08-04T07:10:44;100401.19;;;27.38;37.29
58082;BME280;43876;55.576;38.242;2022-08-04T07:13:12;100400.34;;;27.37;37.36
58082;BME280;43876;55.576;38.242;2022-08-04T07:15:44;100415.66;;;27.35;37.14
58082;BME280;43876;55.576;38.242;2022-08-04T07:18:12;100393.84;;;27.42;37.32
58082;BME280;43876;55.576;38.242;2022-08-04T07:20:41;100398.31;;;27.57;36.91
58082;BME280;43876;55.576;38.242;2022-08-04T07:23:09;100405.28;;;27.75;36.57
58082;BME280;43876;55.576;38.242;2022-08-04T07:25:38;100389.25;;;27.74;36.86
58082;BME280;43876;55.576;38.242;2022-08-04T07:28:27;100377.97;;;27.83;36.40
58082;BME280;43876;55.576;38.242;2022-08-04T07:30:56;100395.44;;;28.64;35.82
58082;BME280;43876;55.576;38.242;2022-08-04T07:33:24;100385.50;;;29.34;34.70
58082;BME280;43876;55.576;38.242;2022-08-04T07:35:56;100392.91;;;29.58;34.35
58082;BME280;43876;55.576;38.242;2022-08-04T07:38:36;100409.47;;;29.52;34.33
58082;BME280;43876;55.576;38.242;2022-08-04T07:41:23;100391.28;;;29.28;34.57
58082;BME280;43876;55.576;38.242;2022-08-04T07:44:09;100347.91;;;28.78;34.89
58082;BME280;43876;55.576;38.242;2022-08-04T07:46:36;100379.53;;;29.02;35.56
58082;BME280;43876;55.576;38.242;2022-08-04T07:49:04;100384.34;;;29.11;35.16
58082;BME280;43876;55.576;38.242;2022-08-04T07:51:32;100391.25;;;29.15;35.03
58082;BME280;43876;55.576;38.242;2022-08-04T07:54:01;100380.09;;;29.22;35.14
58082;BME280;43876;55.576;38.242;2022-08-04T07:56:34;100389.41;;;29.02;35.26
58082;BME280;43876;55.576;38.242;2022-08-04T07:59:02;100393.78;;;28.90;35.42
58082;BME280;43876;55.576;38.242;2022-08-04T08:01:30;100387.00;;;28.55;35.90
58082;BME280;43876;55.576;38.242;2022-08-04T08:03:58;100386.41;;;28.65;35.96
58082;BME280;43876;55.576;38.242;2022-08-04T08:06:28;100383.81;;;28.77;35.33
58082;BME280;43876;55.576;38.242;2022-08-04T08:09:09;100384.19;;;28.86;35.08
58082;BME280;43876;55.576;38.242;2022-08-04T08:11:46;100366.72;;;28.78;35.47
58082;BME280;43876;55.576;38.242;2022-08-04T08:14:34;100368.66;;;28.62;35.10
58082;BME280;43876;55.576;38.242;2022-08-04T08:17:02;100365.28;;;28.73;35.70
58082;BME280;43876;55.576;38.242;2022-08-04T08:19:31;100382.94;;;28.91;35.71
58082;BME280;43876;55.576;38.242;2022-08-04T08:21:59;100385.09;;;28.99;34.82
58082;BME280;43876;55.576;38.242;2022-08-04T08:24:29;100382.09;;;29.04;34.95
58082;BME280;43876;55.576;38.242;2022-08-04T08:26:57;100382.69;;;29.09;34.70
58082;BME280;43876;55.576;38.242;2022-08-04T08:29:27;100367.50;;;29.08;34.48
58082;BME280;43876;55.576;38.242;2022-08-04T08:31:55;100371.16;;;29.34;34.45
58082;BME280;43876;55.576;38.242;2022-08-04T08:34:32;100375.66;;;29.48;34.58
58082;BME280;43876;55.576;38.242;2022-08-04T08:39:51;100375.88;;;30.10;33.82
58082;BME280;43876;55.576;38.242;2022-08-04T08:48:03;100382.72;;;29.49;34.25
58082;BME280;43876;55.576;38.242;2022-08-04T09:02:06;100384.03;;;29.83;34.18
58082;BME280;43876;55.576;38.242;2022-08-04T09:07:56;100383.94;;;30.23;33.19
58082;BME280;43876;55.576;38.242;2022-08-04T09:10:32;100382.09;;;30.11;33.25
58082;BME280;43876;55.576;38.242;2022-08-04T09:13:05;100386.25;;;30.29;33.09
58082;BME280;43876;55.576;38.242;2022-08-04T09:15:40;100392.16;;;30.34;33.13
58082;BME280;43876;55.576;38.242;2022-08-04T09:18:29;100379.75;;;30.06;33.81
58082;BME280;43876;55.576;38.242;2022-08-04T09:21:09;100384.59;;;30.01;33.54
58082;BME280;43876;55.576;38.242;2022-08-04T09:23:50;100361.94;;;29.78;33.74
58082;BME280;43876;55.576;38.242;2022-08-04T09:26:37;100377.47;;;30.13;33.23
58082;BME280;43876;55.576;38.242;2022-08-04T09:29:19;100370.47;;;30.61;32.64
58082;BME280;43876;55.576;38.242;2022-08-04T09:37:24;100374.69;;;30.53;32.87
58082;BME280;43876;55.576;38.242;2022-08-04T09:40:05;100385.56;;;30.13;33.33
58082;BME280;43876;55.576;38.242;2022-08-04T09:45:26;100377.03;;;29.53;34.34
58082;BME280;43876;55.576;38.242;2022-08-04T09:51:10;100379.25;;;29.34;34.67
58082;BME280;43876;55.576;38.242;2022-08-04T09:56:31;100379.56;;;29.29;34.85
58082;BME280;43876;55.576;38.242;2022-08-04T10:01:51;100371.75;;;29.79;34.27
58082;BME280;43876;55.576;38.242;2022-08-04T10:04:28;100316.66;;;29.57;34.46
58082;BME280;43876;55.576;38.242;2022-08-04T10:12:40;100373.25;;;29.96;34.79
58082;BME280;43876;55.576;38.242;2022-08-04T10:15:59;100386.53;;;30.12;33.86
58082;BME280;43876;55.576;38.242;2022-08-04T10:23:45;100377.47;;;30.26;34.10
58082;BME280;43876;55.576;38.242;2022-08-04T10:29:01;100375.31;;;30.44;33.04
58082;BME280;43876;55.576;38.242;2022-08-04T10:31:35;100340.47;;;30.66;33.15
58082;BME280;43876;55.576;38.242;2022-08-04T10:34:11;100365.44;;;31.18;32.51
58082;BME280;43876;55.576;38.242;2022-08-04T10:37:17;100368.75;;;31.70;31.33
58082;BME280;43876;55.576;38.242;2022-08-04T10:39:58;100347.78;;;31.73;30.44
58082;BME280;43876;55.576;38.242;2022-08-04T10:45:58;100386.34;;;31.87;29.90
58082;BME280;43876;55.576;38.242;2022-08-04T10:48:58;100378.41;;;31.61;30.70
58082;BME280;43876;55.576;38.242;2022-08-04T10:51:34;100372.91;;;31.62;30.82
58082;BME280;43876;55.576;38.242;2022-08-04T10:54:28;100392.75;;;31.37;31.02
58082;BME280;43876;55.576;38.242;2022-08-04T10:57:06;100394.81;;;31.10;31.24
58082;BME280;43876;55.576;38.242;2022-08-04T11:00:00;100386.16;;;30.93;32.23
58082;BME280;43876;55.576;38.242;2022-08-04T11:05:28;100388.16;;;31.02;31.63
58082;BME280;43876;55.576;38.242;2022-08-04T11:08:01;100393.38;;;30.93;31.53
58082;BME280;43876;55.576;38.242;2022-08-04T11:10:42;100392.00;;;30.87;31.62
58082;BME280;43876;55.576;38.242;2022-08-04T11:13:14;100365.03;;;30.74;31.51
58082;BME280;43876;55.576;38.242;2022-08-04T11:15:57;100383.38;;;30.56;32.38
58082;BME280;43876;55.576;38.242;2022-08-04T11:18:43;100386.25;;;30.29;32.57
58082;BME280;43876;55.576;38.242;2022-08-04T11:21:18;100392.22;;;30.20;32.55
58082;BME280;43876;55.576;38.242;2022-08-04T11:24:12;100368.72;;;29.96;32.71
58082;BME280;43876;55.576;38.242;2022-08-04T11:27:04;100399.44;;;29.94;33.29
58082;BME280;43876;55.576;38.242;2022-08-04T11:30:00;100385.22;;;30.05;32.59
58082;BME280;43876;55.576;38.242;2022-08-04T11:32:35;100381.00;;;30.00;32.06
58082;BME280;43876;55.576;38.242;2022-08-04T11:35:06;100384.38;;;30.04;32.45
58082;BME280;43876;55.576;38.242;2022-08-04T11:37:48;100381.25;;;30.10;31.60
58082;BME280;43876;55.576;38.242;2022-08-04T11:40:23;100376.41;;;30.15;31.52
58082;BME280;43876;55.576;38.242;2022-08-04T11:43:03;100353.47;;;30.10;31.28
58082;BME280;43876;55.576;38.242;2022-08-04T11:45:49;100378.22;;;30.28;31.21
58082;BME280;43876;55.576;38.242;2022-08-04T11:48:24;100345.38;;;30.23;31.25
58082;BME280;43876;55.576;38.242;2022-08-04T11:50:56;100367.88;;;30.60;31.13
58082;BME280;43876;55.576;38.242;2022-08-04T11:53:36;100380.31;;;30.74;30.88
58082;BME280;43876;55.576;38.242;2022-08-04T11:56:06;100370.19;;;30.90;29.96
58082;BME280;43876;55.576;38.242;2022-08-04T11:58:38;100368.44;;;31.02;29.98
58082;BME280;43876;55.576;38.242;2022-08-04T12:01:27;100362.97;;;31.15;30.24
58082;BME280;43876;55.576;38.242;2022-08-04T12:04:15;100315.50;;;31.12;30.41
58082;BME280;43876;55.576;38.242;2022-08-04T12:06:54;100355.53;;;31.30;30.63
58082;BME280;43876;55.576;38.242;2022-08-04T12:10:02;100365.25;;;31.08;30.50
58082;BME280;43876;55.576;38.242;2022-08-04T12:12:39;100352.75;;;31.07;30.29
58082;BME280;43876;55.576;38.242;2022-08-04T12:15:26;100372.38;;;31.09;30.50
58082;BME280;43876;55.576;38.242;2022-08-04T12:20:48;100319.63;;;30.44;31.49
58082;BME280;43876;55.576;38.242;2022-08-04T12:23:24;100365.34;;;30.82;31.64
58082;BME280;43876;55.576;38.242;2022-08-04T12:25:55;100327.72;;;30.68;31.68
58082;BME280;43876;55.576;38.242;2022-08-04T12:28:36;100324.31;;;30.53;31.51
58082;BME280;43876;55.576;38.242;2022-08-04T12:31:34;100355.16;;;30.99;31.58
58082;BME280;43876;55.576;38.242;2022-08-04T12:34:15;100350.56;;;31.12;31.86
58082;BME280;43876;55.576;38.242;2022-08-04T12:39:24;100341.19;;;30.81;31.92
58082;BME280;43876;55.576;38.242;2022-08-04T12:45:25;100344.72;;;30.81;31.48
58082;BME280;43876;55.576;38.242;2022-08-04T12:47:56;100323.84;;;30.35;31.88
58082;BME280;43876;55.576;38.242;2022-08-04T12:50:24;100337.28;;;30.48;31.98
58082;BME280;43876;55.576;38.242;2022-08-04T12:52:55;100331.22;;;30.57;32.47
58082;BME280;43876;55.576;38.242;2022-08-04T12:55:32;100341.22;;;30.68;32.40
58082;BME280;43876;55.576;38.242;2022-08-04T12:58:11;100345.97;;;30.65;32.10
58082;BME280;43876;55.576;38.242;2022-08-04T13:00:43;100328.19;;;30.62;32.52
58082;BME280;43876;55.576;38.242;2022-08-04T13:03:14;100312.41;;;30.69;32.36
58082;BME280;43876;55.576;38.242;2022-08-04T13:05:43;100324.28;;;31.03;32.09
58082;BME280;43876;55.576;38.242;2022-08-04T13:08:12;100321.41;;;31.17;31.99
58082;BME280;43876;55.576;38.242;2022-08-04T13:10:45;100319.97;;;31.25;31.93
58082;BME280;43876;55.576;38.242;2022-08-04T13:13:20;100327.41;;;31.21;32.31
58082;BME280;43876;55.576;38.242;2022-08-04T13:16:04;100320.31;;;31.20;32.26
58082;BME280;43876;55.576;38.242;2022-08-04T13:18:39;100304.56;;;31.02;32.89
58082;BME280;43876;55.576;38.242;2022-08-04T13:21:19;100334.84;;;30.69;33.59
58082;BME280;43876;55.576;38.242;2022-08-04T13:24:11;100329.22;;;30.35;34.65
58082;BME280;43876;55.576;38.242;2022-08-04T13:27:04;100339.44;;;30.05;34.83
58082;BME280;43876;55.576;38.242;2022-08-04T13:29:43;100342.47;;;29.87;35.36
58082;BME280;43876;55.576;38.242;2022-08-04T13:32:30;100325.69;;;29.84;35.18
58082;BME280;43876;55.576;38.242;2022-08-04T13:35:00;100332.66;;;29.86;35.05
58082;BME280;43876;55.576;38.242;2022-08-04T13:37:33;100328.47;;;29.82;34.86
58082;BME280;43876;55.576;38.242;2022-08-04T13:40:08;100325.22;;;30.02;34.01
58082;BME280;43876;55.576;38.242;2022-08-04T13:42:37;100336.09;;;30.27;33.82
58082;BME280;43876;55.576;38.242;2022-08-04T13:45:07;100325.09;;;30.42;33.95
58082;BME280;43876;55.576;38.242;2022-08-04T13:47:37;100331.22;;;30.57;34.01
58082;BME280;43876;55.576;38.242;2022-08-04T13:50:23;100322.69;;;30.64;32.96
58082;BME280;43876;55.576;38.242;2022-08-04T13:52:55;100331.06;;;30.72;32.68
58082;BME280;43876;55.576;38.242;2022-08-04T13:57:56;100318.50;;;30.83;32.63
58082;BME280;43876;55.576;38.242;2022-08-04T14:00:25;100299.63;;;30.96;32.64
58082;BME280;43876;55.576;38.242;2022-08-04T14:03:02;100300.28;;;31.11;32.73
58082;BME280;43876;55.576;38.242;2022-08-04T14:06:09;100298.63;;;31.21;32.39
58082;BME280;43876;55.576;38.242;2022-08-04T14:11:44;100301.44;;;31.20;32.75
58082;BME280;43876;55.576;38.242;2022-08-04T14:14:33;100304.03;;;31.21;32.89
58082;BME280;43876;55.576;38.242;2022-08-04T14:17:06;100297.50;;;31.13;32.96
58082;BME280;43876;55.576;38.242;2022-08-04T14:30:28;100266.91;;;30.40;33.16
58082;BME280;43876;55.576;38.242;2022-08-04T14:33:04;100293.00;;;30.27;33.46
58082;BME280;43876;55.576;38.242;2022-08-04T14:35:56;100299.78;;;30.32;33.60
58082;BME280;43876;55.576;38.242;2022-08-04T14:38:40;100279.44;;;30.02;33.25
58082;BME280;43876;55.576;38.242;2022-08-04T14:41:08;100291.53;;;29.97;31.97
58082;BME280;43876;55.576;38.242;2022-08-04T14:46:15;100306.38;;;29.77;31.07
58082;BME280;43876;55.576;38.242;2022-08-04T14:49:11;100291.91;;;29.52;32.33
58082;BME280;43876;55.576;38.242;2022-08-04T14:51:44;100295.34;;;29.42;32.88
58082;BME280;43876;55.576;38.242;2022-08-04T14:54:13;100288.34;;;29.39;33.02
58082;BME280;43876;55.576;38.242;2022-08-04T14:56:52;100300.63;;;29.43;32.80
58082;BME280;43876;55.576;38.242;2022-08-04T14:59:20;100308.56;;;29.45;32.10
58082;BME280;43876;55.576;38.242;2022-08-04T15:01:48;100301.47;;;29.44;32.69
58082;BME280;43876;55.576;38.242;2022-08-04T15:04:28;100295.66;;;29.37;32.74
58082;BME280;43876;55.576;38.242;2022-08-04T15:06:58;100313.31;;;29.41;32.04
58082;BME280;43876;55.576;38.242;2022-08-04T15:09:32;100301.69;;;29.40;32.50
58082;BME280;43876;55.576;38.242;2022-08-04T15:11:59;100288.84;;;29.31;32.42
58082;BME280;43876;55.576;38.242;2022-08-04T15:14:26;100262.59;;;29.22;32.61
58082;BME280;43876;55.576;38.242;2022-08-04T15:17:05;100302.13;;;29.47;33.14
58082;BME280;43876;55.576;38.242;2022-08-04T15:19:54;100297.16;;;29.41;32.68
58082;BME280;43876;55.576;38.242;2022-08-04T15:22:22;100302.13;;;29.34;32.73
58082;BME280;43876;55.576;38.242;2022-08-04T15:24:49;100296.56;;;29.23;33.09
58082;BME280;43876;55.576;38.242;2022-08-04T15:27:29;100300.91;;;29.26;33.31
58082;BME280;43876;55.576;38.242;2022-08-04T15:30:04;100307.22;;;29.25;32.76
58082;BME280;43876;55.576;38.242;2022-08-04T15:32:34;100249.84;;;28.84;32.20
58082;BME280;43876;55.576;38.242;2022-08-04T15:35:18;100300.38;;;29.06;30.86
58082;BME280;43876;55.576;38.242;2022-08-04T15:45:55;100301.72;;;29.13;31.39
58082;BME280;43876;55.576;38.242;2022-08-04T15:48:45;100285.31;;;29.04;31.64
58082;BME280;43876;55.576;38.242;2022-08-04T15:51:23;100313.44;;;29.12;31.91
58082;BME280;43876;55.576;38.242;2022-08-04T15:58:57;100315.72;;;29.18;32.40
58082;BME280;43876;55.576;38.242;2022-08-04T16:01:24;100316.78;;;29.16;32.18
58082;BME280;43876;55.576;38.242;2022-08-04T16:03:56;100309.31;;;29.07;32.33
58082;BME280;43876;55.576;38.242;2022-08-04T16:09:01;100319.03;;;29.09;32.69
58082;BME280;43876;55.576;38.242;2022-08-04T16:19:24;100316.66;;;28.90;33.21
58082;BME280;43876;55.576;38.242;2022-08-04T16:22:02;100312.56;;;28.85;32.98
58082;BME280;43876;55.576;38.242;2022-08-04T16:24:38;100336.00;;;28.83;33.20
58082;BME280;43876;55.576;38.242;2022-08-04T16:27:09;100314.00;;;28.76;33.30
58082;BME280;43876;55.576;38.242;2022-08-04T16:29:44;100329.66;;;28.84;33.46
58082;BME280;43876;55.576;38.242;2022-08-04T16:32:23;100319.75;;;28.84;33.14
58082;BME280;43876;55.576;38.242;2022-08-04T16:34:57;100301.75;;;28.72;33.35
58082;BME280;43876;55.576;38.242;2022-08-04T16:37:35;100264.47;;;28.53;33.78
58082;BME280;43876;55.576;38.242;2022-08-04T16:40:45;100321.59;;;28.84;33.87
58082;BME280;43876;55.576;38.242;2022-08-04T16:43:21;100330.03;;;28.77;34.01
58082;BME280;43876;55.576;38.242;2022-08-04T16:45:51;100328.44;;;28.75;34.44
58082;BME280;43876;55.576;38.242;2022-08-04T16:48:27;100324.03;;;28.74;34.23
58082;BME280;43876;55.576;38.242;2022-08-04T16:51:03;100334.00;;;28.72;34.44
58082;BME280;43876;55.576;38.242;2022-08-04T16:53:40;100336.31;;;28.64;34.97
58082;BME280;43876;55.576;38.242;2022-08-04T16:56:30;100294.22;;;28.35;35.13
58082;BME280;43876;55.576;38.242;2022-08-04T16:59:11;100297.84;;;28.34;35.30
58082;BME280;43876;55.576;38.242;2022-08-04T17:01:51;100315.19;;;28.43;35.24
58082;BME280;43876;55.576;38.242;2022-08-04T17:04:28;100325.78;;;28.17;35.66
58082;BME280;43876;55.576;38.242;2022-08-04T17:07:04;100322.53;;;28.27;35.80
58082;BME280;43876;55.576;38.242;2022-08-04T17:09:32;100328.00;;;28.25;36.03
58082;BME280;43876;55.576;38.242;2022-08-04T17:11:59;100334.97;;;28.28;36.08
58082;BME280;43876;55.576;38.242;2022-08-04T17:14:29;100333.44;;;28.24;36.10
58082;BME280;43876;55.576;38.242;2022-08-04T17:16:59;100326.16;;;28.11;36.57
58082;BME280;43876;55.576;38.242;2022-08-04T17:19:27;100321.28;;;28.04;36.57
58082;BME280;43876;55.576;38.242;2022-08-04T17:21:59;100345.25;;;28.07;36.65
58082;BME280;43876;55.576;38.242;2022-08-04T17:24:35;100342.19;;;27.98;36.95
58082;BME280;43876;55.576;38.242;2022-08-04T17:27:04;100334.13;;;27.98;37.21
58082;BME280;43876;55.576;38.242;2022-08-04T17:29:53;100337.03;;;27.80;37.23
58082;BME280;43876;55.576;38.242;2022-08-04T17:32:20;100336.28;;;27.77;37.47
58082;BME280;43876;55.576;38.242;2022-08-04T17:34:50;100343.22;;;27.66;37.83
58082;BME280;43876;55.576;38.242;2022-08-04T17:37:20;100337.78;;;27.37;38.26
58082;BME280;43876;55.576;38.242;2022-08-04T17:40:12;100339.63;;;27.36;38.78
58082;BME280;43876;55.576;38.242;2022-08-04T17:42:49;100298.03;;;27.13;39.10
58082;BME280;43876;55.576;38.242;2022-08-04T17:45:17;100315.59;;;27.19;39.21
58082;BME280;43876;55.576;38.242;2022-08-04T17:48:17;100340.06;;;27.29;39.22
58082;BME280;43876;55.576;38.242;2022-08-04T17:50:51;100332.53;;;27.20;39.59
58082;BME280;43876;55.576;38.242;2022-08-04T17:53:31;100346.78;;;27.20;39.69